Aeroporto :
LOGIN :

Iscrizione | Disclaimer

   EN    FR    IT 

 










Sommario :    VFR   VFR Marginale   IFR   IFR Intensivo   IFR Molto Intensivo
Visibilità : 
Base nubi : 
>= 8 km
>= 3000ft
5 / 8 km
1000 / 3000 ft
1500m / 5 km
500 / 1000 ft
800 / 1500m
200 / 500 ft
< 800m
< 200 ft
Simboli :   Temporali  Nebbia  Neve Forte  Precipitazioni Forti  Vento > 20 kt
SIGMETs :   Varie  Temporali  Ghiacco  Turbolenza  Onda orograficha  Ceneri Vulcaniche







- Altitudine del aeroporto : 3 ft
- Codice IATA : DHR


EHKD - Den Helder De Kooy

ULTIMO METAR :
  • 211655Z AUTO 25009KT 220V280 4800 BR OVC012 08/08 Q1026 GRN 25010KT 5000 BR FEW006 BKN012 OVC015 TEMPO 2000 DZ BKN004 OVC006

METARs OBSOLETI :
  • 211645Z AUTO 25009KT 4900 BR OVC012 08/08 Q1026 GRN 25010KT 5000 BR FEW006 BKN012 OVC015 TEMPO 2000 DZ BKN004 OVC006
  • 211627Z AUTO 25009KT 4500 BR FEW002 BKN013 OVC016 08/08 Q1026 GRN 25011KT 4500 BR FEW003 SCT006 BKN010 TEMPO 1500 DZ BKN002 OVC004
  • 211611Z AUTO 25010KT 3800 BR FEW002 OVC012 08/08 Q1026 GRN 25011KT 4500 BR FEW003 SCT006 BKN010 TEMPO 1500 DZ BKN002 OVC004
  • 211555Z AUTO 25011KT 2600 R21/2600U BR FEW002 SCT007 BKN008 08/08 Q1026 YLO 25011KT 1500 DZ BKN002 OVC004 TEMPO 4500 BR SCT004 BKN006
  • 211540Z AUTO 25011KT 1100 R21/1100D BR OVC002 08/08 Q1025 AMB 25011KT 1500 DZ BKN002 OVC004 TEMPO 4500 BR SCT004 BKN006
  • 211527Z AUTO 25011KT 1400 R21/1600D BR OVC001 08/08 Q1025 RED 25011KT 1500 DZ BKN002 OVC004 TEMPO 4500 BR SCT004 BKN006
  • 211455Z AUTO 25011KT 2000 R21/2000N BR OVC002 08/08 Q1025 AMB 25011KT 4500 BR SCT004 BKN006 TEMPO 1500 DZ BKN002 OVC004

TAF TAF EHKD
Valido dal 21 a 14 ore il 22 a 02 ore UTC


211332Z 2114/2202 25013KT 4500 BR SCT004 BKN006
TEMPO 2114/2120 1500 BR SCT002 BKN004
BECMG 2117/2120 VRB03KT 2500 BR BKN003
PROB40 2122/2200 0600 FG OVC001
Nessun NOTAM noto per questo aeroporto.



MetMap, La meteo Aeronautica in un colpo d'occhio ! - Copyright ORBIFLY Dicembre 2007 - Disclaimer

ORBIFLY MET'MAP TEAM :

Programmazione e sviluppo : Alexandra Zaïnal
Concezione e sviluppo : Baudouin d'Aumeries
Co-Programmazione e sviluppo : Marc-Olivier Méhu
Supporto tecnico e logistico : Manuel Goepfert
Aiuto per la traduzione : Arnaldo La Scala

Contatto : metmap@orbifly.com




FONTI E CREDITI :

   NOAA